createdAt,value
2022-10-19T00:01:48.246Z,101004.88
2022-10-19T00:04:41.109Z,100997.84
2022-10-19T00:07:29.646Z,100995.06
2022-10-19T00:10:18.709Z,100997.41
2022-10-19T00:13:09.587Z,100981.16
2022-10-19T00:16:02.684Z,100987.94
2022-10-19T00:18:54.422Z,100991.59
2022-10-19T00:21:42.842Z,100995.63
2022-10-19T00:24:31.363Z,100989.72
2022-10-19T00:27:25.679Z,100988.16
2022-10-19T00:30:27.524Z,100979.88
2022-10-19T00:33:47.032Z,100990.84
2022-10-19T00:36:39.686Z,100976.22
2022-10-19T00:39:30.553Z,100978.34
2022-10-19T00:42:18.975Z,100981.22
2022-10-19T00:45:24.916Z,100977.66
2022-10-19T00:48:20.747Z,100983.63
2022-10-19T00:51:11.843Z,100990.59
2022-10-19T00:54:06.675Z,100981.06
2022-10-19T00:57:08.327Z,100980.03
2022-10-19T01:00:04.206Z,100979.59
2022-10-19T01:02:52.833Z,100982.22
2022-10-19T01:05:42.026Z,100982.09
2022-10-19T01:08:30.808Z,100985.53
2022-10-19T01:11:44.487Z,100984.34
2022-10-19T01:15:28.128Z,100976.91
2022-10-19T01:18:23.965Z,100971.00
2022-10-19T01:21:34.879Z,100977.56
2022-10-19T01:24:52.176Z,100969.09
2022-10-19T01:28:11.738Z,100984.50
2022-10-19T01:31:22.082Z,100981.63
2022-10-19T01:34:28.120Z,100972.25
2022-10-19T01:37:42.340Z,100974.00
2022-10-19T01:40:46.627Z,100971.91
2022-10-19T01:44:12.656Z,100974.63
2022-10-19T01:47:12.225Z,100974.50
2022-10-19T01:50:16.522Z,100969.56
2022-10-19T01:53:13.328Z,100970.25
2022-10-19T01:56:03.458Z,100968.19
2022-10-19T01:58:57.985Z,100965.81
2022-10-19T02:01:49.524Z,100971.72
2022-10-19T02:04:53.510Z,100968.41
2022-10-19T02:07:50.653Z,100962.94
2022-10-19T02:10:43.231Z,100968.88
2022-10-19T02:13:33.118Z,100963.38
2022-10-19T02:16:30.446Z,100958.97
2022-10-19T02:19:20.879Z,100959.81
2022-10-19T02:22:13.652Z,100964.75
2022-10-19T02:25:09.779Z,100952.41
2022-10-19T02:28:00.166Z,100964.53
2022-10-19T02:30:48.935Z,100971.38
2022-10-19T02:33:40.151Z,100955.34
2022-10-19T02:36:31.976Z,100960.56
2022-10-19T02:39:22.157Z,100945.19
2022-10-19T02:42:26.280Z,100955.63
2022-10-19T02:45:23.628Z,100956.34
2022-10-19T02:48:24.036Z,100947.78
2022-10-19T02:51:33.192Z,100940.91
2022-10-19T02:54:27.686Z,100945.88
2022-10-19T02:57:34.026Z,100952.97
2022-10-19T03:00:22.767Z,100944.28
2022-10-19T03:03:13.406Z,100937.66
2022-10-19T03:06:01.617Z,100938.44
2022-10-19T03:08:50.354Z,100940.84
2022-10-19T03:11:45.229Z,100933.44
2022-10-19T03:14:33.631Z,100928.66
2022-10-19T03:17:21.825Z,100926.41
2022-10-19T03:20:11.639Z,100932.91
2022-10-19T03:23:00.330Z,100935.34
2022-10-19T03:25:51.142Z,100930.66
2022-10-19T03:28:45.645Z,100922.88
2022-10-19T03:31:37.075Z,100926.28
2022-10-19T03:34:36.154Z,100918.34
2022-10-19T03:37:24.600Z,100917.94
2022-10-19T03:40:13.032Z,100920.19
2022-10-19T03:43:01.426Z,100919.13
2022-10-19T03:45:49.614Z,100919.38
2022-10-19T03:48:37.856Z,100923.44
2022-10-19T03:51:28.997Z,100918.88
2022-10-19T03:54:19.890Z,100920.13
2022-10-19T03:57:11.288Z,100918.97
2022-10-19T03:59:59.423Z,100925.03
2022-10-19T04:02:47.624Z,100924.31
2022-10-19T04:05:35.977Z,100921.06
2022-10-19T04:08:24.404Z,100925.88
2022-10-19T04:11:15.561Z,100926.59
2022-10-19T04:14:06.454Z,100933.91
2022-10-19T04:16:55.264Z,100921.44
2022-10-19T04:19:43.811Z,100930.19
2022-10-19T04:22:32.838Z,100933.44
2022-10-19T04:25:23.855Z,100927.13
2022-10-19T04:28:12.326Z,100935.00
2022-10-19T04:31:05.801Z,100936.84
2022-10-19T04:33:56.003Z,100944.66
2022-10-19T04:36:44.638Z,100940.22
2022-10-19T04:39:32.979Z,100931.09
2022-10-19T04:42:23.435Z,100926.97
2022-10-19T04:45:11.712Z,100930.00
2022-10-19T04:48:00.052Z,100937.41
2022-10-19T04:50:48.529Z,100938.19
2022-10-19T04:53:41.964Z,100942.03
2022-10-19T04:56:39.946Z,100944.81
2022-10-19T04:59:28.564Z,100933.91
2022-10-19T05:02:20.281Z,100927.09
2022-10-19T05:05:20.001Z,100924.09
2022-10-19T05:08:09.158Z,100935.03
2022-10-19T05:11:09.114Z,100942.13
2022-10-19T05:14:22.310Z,100940.72
2022-10-19T05:17:10.457Z,100931.97
2022-10-19T05:19:58.939Z,100938.53
2022-10-19T05:23:06.379Z,100940.03
2022-10-19T05:26:21.033Z,100928.94
2022-10-19T05:29:16.214Z,100928.75
2022-10-19T05:33:24.914Z,100926.81
2022-10-19T05:35:47.605Z,100914.88
2022-10-19T05:38:39.391Z,100940.59
2022-10-19T05:41:29.056Z,100939.44
2022-10-19T05:44:35.664Z,100924.09
2022-10-19T05:47:28.800Z,100932.25
2022-10-19T05:50:25.266Z,100918.28
2022-10-19T05:53:27.079Z,100925.28
2022-10-19T05:56:24.953Z,100934.53
2022-10-19T05:59:22.129Z,100939.06
2022-10-19T06:02:17.479Z,100928.22
2022-10-19T06:05:07.790Z,100925.84
2022-10-19T06:08:15.377Z,100952.13
2022-10-19T06:11:19.420Z,100940.16
2022-10-19T06:14:17.907Z,100918.75
2022-10-19T06:17:10.085Z,100927.16
2022-10-19T06:20:00.834Z,100927.25
2022-10-19T06:22:54.580Z,100925.34
2022-10-19T06:25:42.858Z,100924.97
2022-10-19T06:28:36.158Z,100942.50
2022-10-19T06:31:36.999Z,100925.16
2022-10-19T06:34:27.886Z,100938.16
2022-10-19T06:37:16.391Z,100948.94
2022-10-19T06:44:05.413Z,100946.25
2022-10-19T06:47:04.569Z,100957.88
2022-10-19T06:50:15.896Z,100943.41
2022-10-19T06:53:06.600Z,100953.88
2022-10-19T06:56:15.569Z,100960.84
2022-10-19T06:59:44.120Z,100969.84
2022-10-19T07:06:27.339Z,100958.13
2022-10-19T07:09:33.187Z,100960.25
2022-10-19T07:13:27.335Z,100967.53
2022-10-19T07:16:40.470Z,100960.03
2022-10-19T07:23:12.001Z,100957.84
2022-10-19T07:26:43.953Z,100966.41
2022-10-19T07:30:50.924Z,100979.38
2022-10-19T07:33:45.182Z,100975.78
2022-10-19T07:36:37.371Z,100954.63
2022-10-19T07:39:27.923Z,100960.75
2022-10-19T07:48:48.840Z,100972.97
2022-10-19T07:51:57.358Z,100963.75
2022-10-19T07:55:14.425Z,100970.28
2022-10-19T07:58:20.697Z,100977.75
2022-10-19T08:01:20.744Z,100987.22
2022-10-19T08:05:00.259Z,100972.88
2022-10-19T08:07:56.140Z,100979.53
2022-10-19T08:11:26.853Z,100980.53
2022-10-19T08:15:06.629Z,100977.41
2022-10-19T08:18:51.718Z,101002.28
2022-10-19T08:42:26.541Z,100976.59
2022-10-19T08:58:05.286Z,100961.09
2022-10-19T09:01:54.703Z,100967.88
2022-10-19T09:35:39.262Z,100944.16
2022-10-19T09:41:05.315Z,100941.53
2022-10-19T09:44:30.873Z,100950.53
2022-10-19T10:03:14.890Z,100950.38
2022-10-19T10:06:52.115Z,100946.75
2022-10-19T10:15:14.743Z,100933.59
2022-10-19T10:24:48.254Z,100935.13
2022-10-19T10:27:51.882Z,100948.72
2022-10-19T10:31:54.535Z,100941.28
2022-10-19T10:45:01.349Z,100918.38
2022-10-19T10:48:18.488Z,100923.84
2022-10-19T10:52:52.921Z,100924.53
2022-10-19T11:00:51.441Z,100904.38
2022-10-19T11:04:37.563Z,100901.13
2022-10-19T11:08:12.979Z,100914.78
2022-10-19T11:12:37.934Z,100887.78
2022-10-19T11:33:21.504Z,100859.63
2022-10-19T11:44:48.284Z,100855.66
2022-10-19T11:52:57.614Z,100847.00
2022-10-19T13:12:25.802Z,100754.56
2022-10-19T13:21:11.082Z,100736.38
2022-10-19T13:28:11.527Z,100732.47
2022-10-19T13:31:57.216Z,100723.66
2022-10-19T13:35:32.188Z,100725.53
2022-10-19T13:43:38.375Z,100690.06
2022-10-19T13:46:29.475Z,100704.84
2022-10-19T14:04:29.838Z,100689.72
2022-10-19T14:25:04.070Z,100690.91
2022-10-19T14:32:22.836Z,100676.59
2022-10-19T14:36:05.690Z,100660.50
2022-10-19T14:38:59.575Z,100662.19
2022-10-19T14:42:08.827Z,100662.81
2022-10-19T14:45:50.171Z,100653.06
2022-10-19T14:48:57.397Z,100649.84
2022-10-19T14:51:54.446Z,100658.19
2022-10-19T14:55:03.374Z,100663.59
2022-10-19T14:58:15.873Z,100643.66
2022-10-19T15:03:03.586Z,100644.00
2022-10-19T15:07:58.644Z,100640.50
2022-10-19T15:11:06.868Z,100634.25
2022-10-19T15:14:14.012Z,100650.56
2022-10-19T15:17:28.865Z,100642.25
2022-10-19T15:21:12.102Z,100650.00
2022-10-19T15:24:48.668Z,100635.34
2022-10-19T15:27:51.548Z,100643.69
2022-10-19T15:30:47.776Z,100635.47
2022-10-19T15:34:12.338Z,100625.03
2022-10-19T15:37:23.221Z,100615.84
2022-10-19T15:41:15.871Z,100626.47
2022-10-19T15:48:32.845Z,100623.19
2022-10-19T15:51:34.054Z,100632.50
2022-10-19T15:54:24.444Z,100618.84
2022-10-19T15:57:44.099Z,100626.41
2022-10-19T16:00:32.949Z,100637.25
2022-10-19T16:03:22.543Z,100638.91
2022-10-19T16:06:11.182Z,100612.19
2022-10-19T16:09:02.028Z,100630.00
2022-10-19T16:12:03.679Z,100624.50
2022-10-19T16:14:51.976Z,100610.69
2022-10-19T16:18:28.291Z,100605.56
2022-10-19T16:24:44.365Z,100606.66
2022-10-19T16:27:36.822Z,100606.84
2022-10-19T16:30:27.406Z,100614.50
2022-10-19T16:33:20.721Z,100603.75
2022-10-19T16:36:33.605Z,100614.19
2022-10-19T16:39:26.359Z,100599.69
2022-10-19T16:42:21.077Z,100600.91
2022-10-19T16:45:10.261Z,100617.53
2022-10-19T16:48:01.852Z,100595.25
2022-10-19T16:51:39.351Z,100597.34
2022-10-19T16:54:36.240Z,100619.41
2022-10-19T16:57:52.918Z,100603.81
2022-10-19T17:01:15.779Z,100605.31
2022-10-19T17:15:41.031Z,100599.72
2022-10-19T17:18:20.523Z,100606.25
2022-10-19T17:21:23.710Z,100600.22
2022-10-19T17:24:22.033Z,100604.03
2022-10-19T17:27:18.226Z,100596.97
2022-10-19T17:30:15.873Z,100589.75
2022-10-19T17:33:23.742Z,100585.66
2022-10-19T17:40:03.706Z,100598.44
2022-10-19T17:46:15.288Z,100601.44
2022-10-19T17:49:06.473Z,100602.69
2022-10-19T17:52:04.490Z,100612.47
2022-10-19T17:55:12.902Z,100597.25
2022-10-19T17:58:12.545Z,100605.03
2022-10-19T18:01:10.164Z,100612.25
2022-10-19T18:03:59.234Z,100608.03
2022-10-19T18:06:53.430Z,100589.00
2022-10-19T18:09:41.635Z,100606.47
2022-10-19T18:12:42.203Z,100597.69
2022-10-19T18:15:32.900Z,100605.25
2022-10-19T18:18:23.608Z,100597.69
2022-10-19T18:21:19.218Z,100601.25
2022-10-19T18:24:15.112Z,100589.00
2022-10-19T18:27:09.612Z,100591.44
2022-10-19T18:30:01.777Z,100580.28
2022-10-19T18:32:52.976Z,100603.66
2022-10-19T18:35:41.747Z,100577.50
2022-10-19T18:38:33.279Z,100559.72
2022-10-19T18:41:22.690Z,100561.72
2022-10-19T18:44:14.022Z,100568.78
2022-10-19T18:47:02.598Z,100564.03
2022-10-19T18:49:54.208Z,100566.56
2022-10-19T18:52:45.628Z,100552.47
2022-10-19T18:55:34.091Z,100549.13
2022-10-19T18:58:34.805Z,100561.25
2022-10-19T19:01:26.967Z,100546.66
2022-10-19T19:04:15.541Z,100544.44
2022-10-19T19:07:07.028Z,100553.88
2022-10-19T19:09:55.318Z,100541.19
2022-10-19T19:12:52.033Z,100531.41
2022-10-19T19:15:43.015Z,100536.31
2022-10-19T19:21:42.266Z,100528.13
2022-10-19T19:24:33.493Z,100517.78
2022-10-19T19:27:30.773Z,100519.81
2022-10-19T19:30:28.343Z,100515.09
2022-10-19T19:33:19.705Z,100537.53
2022-10-19T19:36:12.578Z,100540.63
2022-10-19T19:39:04.592Z,100520.97
2022-10-19T19:41:53.361Z,100521.28
2022-10-19T19:44:42.109Z,100531.31
2022-10-19T19:47:30.646Z,100539.53
2022-10-19T19:50:28.050Z,100538.19
2022-10-19T19:53:22.045Z,100543.16
2022-10-19T19:56:29.940Z,100528.81
2022-10-19T19:59:26.151Z,100527.00
2022-10-19T20:02:25.756Z,100537.38
2022-10-19T20:05:23.060Z,100546.03
2022-10-19T20:08:14.385Z,100525.97
2022-10-19T20:11:08.527Z,100526.59
2022-10-19T20:13:57.069Z,100524.53
2022-10-19T20:16:45.893Z,100525.50
2022-10-19T20:19:34.942Z,100519.22
2022-10-19T20:22:26.671Z,100518.50
2022-10-19T20:25:27.518Z,100532.72
2022-10-19T20:28:16.607Z,100523.38
2022-10-19T20:31:21.042Z,100543.09
2022-10-19T20:34:11.004Z,100535.84
2022-10-19T20:36:59.439Z,100529.28
2022-10-19T20:39:52.220Z,100533.16
2022-10-19T20:42:42.449Z,100531.72
2022-10-19T20:45:31.210Z,100523.31
2022-10-19T20:48:19.705Z,100526.25
2022-10-19T20:51:18.891Z,100530.84
2022-10-19T20:54:15.422Z,100529.13
2022-10-19T20:57:03.776Z,100521.94
2022-10-19T20:59:51.819Z,100525.84
2022-10-19T21:02:39.947Z,100529.31
2022-10-19T21:05:28.369Z,100524.19
2022-10-19T21:08:16.846Z,100524.38
2022-10-19T21:11:33.191Z,100527.28
2022-10-19T21:14:28.249Z,100522.84
2022-10-19T21:17:19.014Z,100515.31
2022-10-19T21:20:08.671Z,100514.66
2022-10-19T21:22:58.602Z,100509.41
2022-10-19T21:25:54.746Z,100494.44
2022-10-19T21:28:48.509Z,100514.16
2022-10-19T21:31:44.129Z,100500.19
2022-10-19T21:34:35.031Z,100510.28
2022-10-19T21:37:25.997Z,100503.22
2022-10-19T21:40:14.186Z,100501.41
2022-10-19T21:43:02.417Z,100503.81
2022-10-19T21:45:50.531Z,100511.03
2022-10-19T21:48:39.428Z,100501.94
2022-10-19T21:51:43.528Z,100513.66
2022-10-19T21:54:31.706Z,100503.00
2022-10-19T21:57:19.920Z,100502.31
2022-10-19T22:00:08.893Z,100501.44
2022-10-19T22:02:56.954Z,100499.72
2022-10-19T22:05:52.256Z,100496.16
2022-10-19T22:08:47.791Z,100495.47
2022-10-19T22:11:36.072Z,100495.63
2022-10-19T22:14:24.339Z,100487.00
2022-10-19T22:17:12.549Z,100489.22
2022-10-19T22:20:00.813Z,100485.34
2022-10-19T22:22:51.527Z,100483.34
2022-10-19T22:25:42.089Z,100492.00
2022-10-19T22:28:30.006Z,100480.16
2022-10-19T22:31:18.546Z,100485.91
2022-10-19T22:34:14.412Z,100480.97
2022-10-19T22:37:02.460Z,100480.91
2022-10-19T22:39:50.515Z,100478.81
2022-10-19T22:42:38.634Z,100475.16
2022-10-19T22:45:26.873Z,100477.41
2022-10-19T22:48:16.579Z,100472.16
2022-10-19T22:51:04.618Z,100475.09
2022-10-19T22:53:52.808Z,100470.16
2022-10-19T22:56:41.888Z,100457.09
2022-10-19T22:59:30.090Z,100455.81
2022-10-19T23:02:18.070Z,100463.13
2022-10-19T23:05:06.902Z,100452.50
2022-10-19T23:07:54.918Z,100465.47
2022-10-19T23:10:42.850Z,100466.50
2022-10-19T23:13:30.829Z,100465.47
2022-10-19T23:16:18.763Z,100462.44
2022-10-19T23:19:06.926Z,100459.94
2022-10-19T23:21:54.982Z,100446.72
2022-10-19T23:24:43.267Z,100436.25
2022-10-19T23:27:34.031Z,100427.84
2022-10-19T23:30:22.533Z,100426.38
2022-10-19T23:33:10.599Z,100429.41
2022-10-19T23:36:21.466Z,100432.34
2022-10-19T23:39:09.609Z,100422.81
2022-10-19T23:41:57.541Z,100419.88
2022-10-19T23:44:45.729Z,100415.75
2022-10-19T23:47:33.906Z,100414.34
2022-10-19T23:50:21.964Z,100419.69
2022-10-19T23:53:11.272Z,100412.78
2022-10-19T23:56:06.671Z,100410.88
2022-10-19T23:58:58.121Z,100408.28
